createdAt,value
2018-04-10T00:01:31.070Z,10.20
2018-04-10T00:04:01.759Z,10.30
2018-04-10T00:06:32.470Z,10.30
2018-04-10T00:09:02.421Z,10.30
2018-04-10T00:11:32.401Z,10.10
2018-04-10T00:14:02.322Z,10.20
2018-04-10T00:16:33.061Z,10.10
2018-04-10T00:19:03.006Z,10.00
2018-04-10T00:21:33.730Z,9.90
2018-04-10T00:24:03.721Z,9.90
2018-04-10T00:26:33.709Z,9.90
2018-04-10T00:29:03.694Z,9.60
2018-04-10T00:31:34.501Z,9.90
2018-04-10T00:34:05.282Z,9.90
2018-04-10T00:36:36.021Z,9.90
2018-04-10T00:39:06.092Z,9.90
2018-04-10T00:41:36.919Z,9.80
2018-04-10T00:44:06.922Z,9.80
2018-04-10T00:46:37.708Z,9.40
2018-04-10T00:49:08.442Z,9.50
2018-04-10T00:51:39.161Z,9.60
2018-04-10T00:54:09.909Z,9.40
2018-04-10T00:56:40.704Z,9.20
2018-04-10T00:59:11.470Z,9.00
2018-04-10T01:01:42.202Z,9.00
2018-04-10T01:04:12.961Z,9.20
2018-04-10T01:06:42.921Z,9.20
2018-04-10T01:09:13.658Z,9.00
2018-04-10T01:11:44.449Z,9.00
2018-04-10T01:14:14.429Z,8.90
2018-04-10T01:16:45.161Z,8.50
2018-04-10T01:19:15.242Z,8.50
2018-04-10T01:21:45.181Z,8.60
2018-04-10T01:24:16.041Z,8.80
2018-04-10T01:26:46.081Z,8.80
2018-04-10T01:29:16.042Z,9.20
2018-04-10T01:31:45.977Z,9.10
2018-04-10T01:34:16.725Z,9.10
2018-04-10T01:36:47.447Z,9.00
2018-04-10T01:39:17.462Z,9.00
2018-04-10T01:41:47.489Z,9.10
2018-04-10T01:44:17.449Z,9.00
2018-04-10T01:46:47.462Z,8.80
2018-04-10T01:49:17.421Z,8.90
2018-04-10T01:51:48.206Z,8.80
2018-04-10T01:54:18.124Z,8.80
2018-04-10T01:56:48.048Z,8.70
2018-04-10T01:59:18.002Z,8.80
2018-04-10T02:01:48.882Z,9.40
2018-04-10T02:04:19.906Z,9.60
2018-04-10T02:06:50.747Z,9.50
2018-04-10T02:11:56.412Z,9.50
2018-04-10T02:14:27.241Z,9.30
2018-04-10T02:16:57.981Z,9.20
2018-04-10T02:19:27.930Z,9.20
2018-04-10T02:21:57.905Z,9.20
2018-04-10T02:24:28.664Z,9.30
2018-04-10T02:26:58.602Z,9.30
2018-04-10T02:29:28.574Z,9.20
2018-04-10T02:31:59.370Z,9.40
2018-04-10T02:34:30.141Z,9.50
2018-04-10T02:37:00.925Z,9.50
2018-04-10T02:39:31.829Z,9.50
2018-04-10T02:42:01.849Z,9.50
2018-04-10T02:44:31.830Z,9.40
2018-04-10T02:47:02.591Z,9.50
2018-04-10T02:49:32.529Z,9.50
2018-04-10T02:52:02.501Z,9.60
2018-04-10T02:54:33.200Z,9.30
2018-04-10T02:57:03.155Z,9.30
2018-04-10T02:59:33.889Z,9.20
2018-04-10T03:02:04.681Z,9.50
2018-04-10T03:04:35.445Z,9.80
2018-04-10T03:07:06.169Z,9.80
2018-04-10T03:09:36.921Z,9.80
2018-04-10T03:12:06.922Z,9.70
2018-04-10T03:14:37.709Z,10.00
2018-04-10T03:17:07.661Z,10.00
2018-04-10T03:19:38.401Z,10.30
2018-04-10T03:22:08.329Z,10.20
2018-04-10T03:24:39.040Z,10.00
2018-04-10T03:27:09.921Z,10.00
2018-04-10T03:29:40.769Z,10.00
2018-04-10T03:32:10.750Z,9.90
2018-04-10T03:34:41.482Z,9.90
2018-04-10T03:37:12.221Z,9.90
2018-04-10T03:39:42.189Z,9.80
2018-04-10T03:42:12.141Z,9.90
2018-04-10T03:44:42.909Z,9.90
2018-04-10T03:47:12.881Z,9.80
2018-04-10T03:49:42.835Z,9.90
2018-04-10T03:52:13.572Z,10.50
2018-04-10T03:54:44.709Z,10.60
2018-04-10T03:57:14.669Z,10.60
2018-04-10T03:59:44.621Z,10.70
2018-04-10T04:02:15.361Z,10.80
2018-04-10T04:04:45.357Z,10.80
2018-04-10T04:07:16.350Z,10.90
2018-04-10T04:09:46.301Z,10.90
2018-04-10T04:12:17.073Z,11.00
2018-04-10T04:14:47.863Z,11.00
2018-04-10T04:17:34.261Z,11.00
2018-04-10T04:20:21.945Z,11.00
2018-04-10T04:22:52.644Z,10.80
2018-04-10T04:25:23.349Z,10.80
2018-04-10T04:27:53.321Z,10.80
2018-04-10T04:30:24.885Z,10.10
2018-04-10T04:32:54.829Z,10.10
2018-04-10T04:35:24.781Z,9.90
2018-04-10T04:37:55.501Z,9.70
2018-04-10T04:40:26.361Z,9.50
2018-04-10T04:42:57.180Z,9.50
2018-04-10T04:45:27.881Z,9.50
2018-04-10T04:47:58.602Z,9.50
2018-04-10T04:50:29.650Z,9.60
2018-04-10T04:52:59.562Z,9.60
2018-04-10T04:55:29.461Z,9.70
2018-04-10T04:57:59.402Z,9.60
2018-04-10T05:00:29.354Z,9.60
2018-04-10T05:03:00.882Z,9.70
2018-04-10T05:05:31.602Z,9.70
2018-04-10T05:08:03.265Z,9.70
2018-04-10T05:10:34.029Z,9.80
2018-04-10T05:13:04.745Z,9.80
2018-04-10T05:15:35.590Z,9.70
2018-04-10T05:18:06.309Z,9.60
2018-04-10T05:20:36.221Z,9.60
2018-04-10T05:23:07.141Z,9.40
2018-04-10T05:25:37.037Z,9.40
2018-04-10T05:28:07.917Z,9.50
2018-04-10T05:30:38.670Z,9.50
2018-04-10T05:33:09.421Z,9.40
2018-04-10T05:35:40.111Z,9.40
2018-04-10T05:38:10.858Z,9.60
2018-04-10T05:40:41.600Z,9.60
2018-04-10T05:43:12.346Z,9.70
2018-04-10T05:45:43.097Z,9.90
2018-04-10T05:48:13.105Z,9.80
2018-04-10T05:50:43.832Z,10.00
2018-04-10T05:53:13.803Z,10.00
2018-04-10T05:55:43.782Z,10.10
2018-04-10T05:58:14.984Z,10.20
2018-04-10T06:00:44.934Z,10.20
2018-04-10T06:03:15.670Z,10.20
2018-04-10T06:05:46.456Z,10.20
2018-04-10T06:08:17.610Z,10.30
2018-04-10T06:10:48.307Z,10.30
2018-04-10T06:13:19.291Z,10.20
2018-04-10T06:15:49.330Z,10.20
2018-04-10T06:18:20.142Z,10.40
2018-04-10T06:20:51.433Z,10.40
2018-04-10T06:23:21.544Z,10.40
2018-04-10T06:25:52.566Z,10.60
2018-04-10T06:28:23.305Z,10.70
2018-04-10T06:30:54.029Z,10.70
2018-04-10T06:33:25.062Z,10.70
2018-04-10T06:35:57.565Z,10.70
2018-04-10T06:38:28.770Z,10.70
2018-04-10T06:40:59.451Z,10.80
2018-04-10T06:43:29.409Z,10.80
2018-04-10T06:46:00.453Z,10.70
2018-04-10T06:48:30.451Z,10.70
2018-04-10T06:51:01.210Z,10.80
2018-04-10T06:53:31.949Z,10.80
2018-04-10T06:56:02.682Z,10.80
2018-04-10T06:58:33.434Z,10.80
2018-04-10T07:01:03.455Z,10.80
2018-04-10T07:03:33.398Z,10.90
2018-04-10T07:06:04.246Z,10.80
2018-04-10T07:08:34.205Z,10.90
2018-04-10T07:11:05.664Z,10.90
2018-04-10T07:13:36.688Z,11.40
2018-04-10T07:16:06.693Z,11.40
2018-04-10T07:18:37.461Z,11.70
2018-04-10T07:21:08.174Z,11.80
2018-04-10T07:23:38.634Z,11.80
2018-04-10T07:26:08.597Z,11.90
2018-04-10T07:28:39.302Z,11.90
2018-04-10T07:31:09.261Z,11.90
2018-04-10T07:33:39.181Z,11.90
2018-04-10T07:36:10.035Z,12.20
2018-04-10T07:38:40.882Z,12.20
2018-04-10T07:41:10.817Z,12.30
2018-04-10T07:43:41.604Z,12.40
2018-04-10T07:46:12.358Z,12.40
2018-04-10T07:48:42.350Z,12.40
2018-04-10T07:51:13.050Z,12.50
2018-04-10T07:53:43.002Z,12.50
2018-04-10T07:56:13.711Z,12.70
2018-04-10T07:58:44.548Z,12.80
2018-04-10T08:01:15.331Z,12.90
2018-04-10T08:03:45.290Z,12.90
2018-04-10T08:06:15.268Z,13.10
2018-04-10T08:08:45.233Z,13.10
2018-04-10T08:11:16.012Z,13.30
2018-04-10T08:13:45.990Z,13.30
2018-04-10T08:16:16.736Z,13.50
2018-04-10T08:18:47.670Z,13.70
2018-04-10T08:21:18.735Z,13.60
2018-04-10T08:23:49.594Z,13.70
2018-04-10T08:26:19.570Z,13.60
2018-04-10T08:28:49.594Z,13.80
2018-04-10T08:31:19.633Z,13.90
2018-04-10T08:33:49.707Z,14.00
2018-04-10T08:36:19.702Z,14.00
2018-04-10T08:38:50.470Z,14.40
2018-04-10T08:41:21.269Z,14.50
2018-04-10T08:43:52.130Z,14.40
2018-04-10T08:46:22.902Z,14.50
2018-04-10T08:48:54.134Z,14.50
2018-04-10T08:51:25.024Z,14.70
2018-04-10T08:53:56.782Z,15.00
2018-04-10T08:56:27.838Z,15.00
2018-04-10T08:58:57.858Z,15.00
2018-04-10T09:01:28.706Z,15.30
2018-04-10T09:03:59.470Z,15.40
2018-04-10T09:06:29.517Z,15.30
2018-04-10T09:08:59.512Z,15.30
2018-04-10T09:11:29.531Z,15.40
2018-04-10T09:13:59.534Z,15.50
2018-04-10T09:16:29.517Z,15.60
2018-04-10T09:19:00.280Z,15.60
2018-04-10T09:21:31.632Z,15.70
2018-04-10T09:24:02.679Z,15.70
2018-04-10T09:26:32.649Z,15.70
2018-04-10T09:29:02.956Z,15.80
2018-04-10T09:31:33.713Z,16.00
2018-04-10T09:34:04.440Z,16.20
2018-04-10T09:36:35.207Z,16.30
2018-04-10T09:39:05.233Z,16.20
2018-04-10T09:41:35.215Z,16.30
2018-04-10T09:44:05.196Z,16.40
2018-04-10T09:46:36.276Z,16.80
2018-04-10T09:49:06.994Z,17.20
2018-04-10T09:51:37.731Z,17.50
2018-04-10T09:54:07.661Z,17.50
2018-04-10T09:56:38.371Z,17.70
2018-04-10T09:59:08.279Z,17.70
2018-04-10T10:01:39.017Z,17.80
2018-04-10T10:04:09.741Z,17.90
2018-04-10T10:06:40.527Z,18.00
2018-04-10T10:09:11.227Z,18.20
2018-04-10T10:11:42.003Z,18.00
2018-04-10T10:14:13.179Z,18.10
2018-04-10T10:16:43.184Z,18.10
2018-04-10T10:19:13.162Z,18.20
2018-04-10T10:21:43.873Z,18.40
2018-04-10T10:24:14.609Z,18.50
2018-04-10T10:26:45.377Z,18.80
2018-04-10T10:29:15.336Z,18.80
2018-04-10T10:31:46.147Z,18.80
2018-04-10T10:34:16.151Z,18.80
2018-04-10T10:36:46.145Z,18.80
2018-04-10T10:39:16.129Z,18.70
2018-04-10T10:41:46.911Z,19.00
2018-04-10T10:44:17.983Z,19.20
2018-04-10T10:46:48.880Z,19.10
2018-04-10T10:49:19.976Z,19.30
2018-04-10T10:51:50.784Z,19.10
2018-04-10T10:54:20.753Z,19.10
2018-04-10T10:56:51.465Z,19.10
2018-04-10T10:59:22.219Z,19.10
2018-04-10T11:01:52.957Z,19.20
2018-04-10T11:04:23.753Z,19.10
2018-04-10T11:06:54.565Z,19.00
2018-04-10T11:09:24.516Z,19.00
2018-04-10T11:12:14.117Z,19.00
2018-04-10T11:14:45.029Z,19.10
2018-04-10T11:17:15.986Z,19.20
2018-04-10T11:19:46.917Z,19.40
2018-04-10T11:22:17.066Z,19.40
2018-04-10T11:24:47.369Z,19.40
2018-04-10T11:27:18.230Z,19.40
2018-04-10T11:29:49.762Z,19.70
2018-04-10T11:32:21.079Z,19.90
2018-04-10T11:34:51.967Z,19.80
2018-04-10T11:37:21.989Z,19.80
2018-04-10T11:39:52.997Z,20.00
2018-04-10T11:42:23.750Z,19.90
2018-04-10T11:44:54.565Z,19.90
2018-04-10T11:47:25.402Z,20.00
2018-04-10T11:49:55.550Z,20.00
2018-04-10T11:52:26.648Z,20.10
2018-04-10T11:54:57.914Z,20.30
2018-04-10T11:57:28.638Z,20.50
2018-04-10T11:59:58.637Z,20.40
2018-04-10T12:02:29.438Z,20.20
2018-04-10T12:04:59.437Z,20.20
2018-04-10T12:07:29.831Z,20.30
2018-04-10T12:09:59.806Z,20.50
2018-04-10T12:12:29.869Z,20.70
2018-04-10T12:15:00.841Z,20.90
2018-04-10T12:17:30.909Z,20.80
2018-04-10T12:20:01.806Z,20.40
2018-04-10T12:22:31.990Z,20.40
2018-04-10T12:25:02.850Z,20.50
2018-04-10T12:27:32.913Z,20.50
2018-04-10T12:30:02.829Z,20.70
2018-04-10T12:32:33.718Z,20.70
2018-04-10T12:35:03.838Z,20.70
2018-04-10T12:37:33.894Z,20.80
2018-04-10T12:40:04.837Z,20.80
2018-04-10T12:42:34.910Z,20.80
2018-04-10T12:45:05.990Z,21.00
2018-04-10T12:47:36.070Z,20.90
2018-04-10T12:50:06.998Z,20.80
2018-04-10T12:52:37.842Z,20.60
2018-04-10T12:55:08.790Z,21.00
2018-04-10T12:57:38.765Z,21.00
2018-04-10T13:00:09.905Z,20.90
2018-04-10T13:02:40.731Z,20.90
2018-04-10T13:05:11.600Z,21.00
2018-04-10T13:07:42.478Z,20.70
2018-04-10T13:10:12.551Z,20.70
2018-04-10T13:12:42.682Z,20.50
2018-04-10T13:15:13.543Z,20.20
2018-04-10T13:17:44.470Z,20.30
2018-04-10T13:20:15.770Z,20.30
2018-04-10T13:22:45.997Z,20.30
2018-04-10T13:25:17.103Z,20.70
2018-04-10T13:27:48.239Z,20.70
2018-04-10T13:30:19.636Z,20.70
2018-04-10T13:32:50.964Z,20.70
2018-04-10T13:35:22.164Z,20.40
2018-04-10T13:37:53.085Z,20.50
2018-04-10T13:40:23.228Z,20.50
2018-04-10T13:42:54.157Z,20.80
2018-04-10T13:45:25.077Z,20.90
2018-04-10T13:47:55.147Z,21.00
2018-04-10T13:50:26.043Z,20.90
2018-04-10T13:52:57.018Z,20.70
2018-04-10T13:55:28.037Z,20.80
2018-04-10T13:57:58.917Z,21.00
2018-04-10T14:00:28.971Z,21.00
2018-04-10T14:03:00.237Z,20.60
2018-04-10T14:05:30.325Z,20.60
2018-04-10T14:08:00.565Z,20.30
2018-04-10T14:10:32.433Z,20.60
2018-04-10T14:13:03.967Z,20.50
2018-04-10T14:15:34.919Z,20.20
2018-04-10T14:18:05.037Z,20.20
2018-04-10T14:20:35.880Z,20.20
2018-04-10T14:23:06.162Z,20.20
2018-04-10T14:25:36.320Z,20.10
2018-04-10T14:28:06.455Z,20.20
2018-04-10T14:30:36.477Z,19.70
2018-04-10T14:33:06.412Z,19.40
2018-04-10T14:35:37.318Z,19.20
2018-04-10T14:38:07.341Z,19.20
2018-04-10T14:40:37.488Z,19.20
2018-04-10T14:43:08.389Z,19.10
2018-04-10T14:45:38.486Z,19.10
2018-04-10T14:48:08.570Z,19.00
2018-04-10T14:50:39.589Z,18.90
2018-04-10T14:53:10.311Z,19.00
2018-04-10T14:55:41.357Z,19.00
2018-04-10T14:58:11.393Z,19.00
2018-04-10T15:00:42.695Z,19.00
2018-04-10T15:03:12.752Z,19.00
2018-04-10T15:05:42.843Z,19.10
2018-04-10T15:08:12.921Z,19.40
2018-04-10T15:10:44.112Z,19.60
2018-04-10T15:13:14.724Z,19.50
2018-04-10T15:15:45.833Z,19.60
2018-04-10T15:18:16.837Z,19.90
2018-04-10T15:20:47.017Z,19.90
2018-04-10T15:23:17.279Z,19.80
2018-04-10T15:25:48.565Z,19.50
2018-04-10T15:28:19.800Z,19.50
2018-04-10T15:30:50.036Z,19.60
2018-04-10T15:33:20.158Z,19.90
2018-04-10T15:35:50.557Z,20.40
2018-04-10T15:38:20.669Z,20.10
2018-04-10T15:40:50.797Z,20.30
2018-04-10T15:43:20.952Z,20.30
2018-04-10T15:45:51.015Z,20.40
2018-04-10T15:48:21.064Z,20.50
2018-04-10T15:50:51.137Z,20.70
2018-04-10T15:53:21.262Z,20.60
2018-04-10T15:55:51.517Z,20.30
2018-04-10T15:58:21.592Z,20.20
2018-04-10T16:00:51.566Z,20.10
2018-04-10T16:03:21.714Z,20.10
2018-04-10T16:05:51.830Z,20.20
2018-04-10T16:08:21.892Z,20.30
2018-04-10T16:10:52.787Z,20.40
2018-04-10T16:13:23.072Z,20.40
2018-04-10T16:15:53.166Z,20.50
2018-04-10T16:18:23.458Z,20.10
2018-04-10T16:20:57.201Z,19.80
2018-04-10T16:23:27.354Z,19.90
2018-04-10T16:25:57.386Z,19.70
2018-04-10T16:28:28.495Z,19.60
2018-04-10T16:30:59.257Z,19.60
2018-04-10T16:33:29.260Z,19.60
2018-04-10T16:36:00.029Z,19.50
2018-04-10T16:38:30.029Z,19.50
2018-04-10T16:41:00.948Z,18.70
2018-04-10T16:43:31.017Z,18.60
2018-04-10T16:46:01.025Z,18.40
2018-04-10T16:48:31.037Z,18.10
2018-04-10T16:51:01.057Z,18.00
2018-04-10T16:53:31.083Z,17.90
2018-04-10T16:56:01.172Z,17.50
2018-04-10T16:58:32.011Z,17.50
2018-04-10T17:01:02.097Z,17.50
2018-04-10T17:03:32.168Z,17.30
2018-04-10T17:06:03.047Z,17.40
2018-04-10T17:08:33.200Z,17.40
2018-04-10T17:11:03.262Z,17.40
2018-04-10T17:13:34.117Z,17.10
2018-04-10T17:16:04.969Z,17.10
2018-04-10T17:18:36.008Z,17.10
2018-04-10T17:21:06.164Z,17.10
2018-04-10T17:23:36.284Z,17.10
2018-04-10T17:26:06.412Z,17.00
2018-04-10T17:28:36.488Z,17.00
2018-04-10T17:31:06.625Z,16.90
2018-04-10T17:33:37.600Z,16.80
2018-04-10T17:36:07.693Z,16.70
2018-04-10T17:38:37.670Z,16.60
2018-04-10T17:41:08.453Z,16.50
2018-04-10T17:43:39.365Z,16.40
2018-04-10T17:46:09.728Z,16.40
2018-04-10T17:48:40.578Z,16.30
2018-04-10T17:51:11.806Z,16.20
2018-04-10T17:53:41.877Z,16.20
2018-04-10T17:56:12.721Z,16.30
2018-04-10T17:58:43.645Z,16.20
2018-04-10T18:01:14.409Z,16.20
2018-04-10T18:03:45.318Z,16.20
2018-04-10T18:06:16.165Z,16.10
2018-04-10T18:08:46.278Z,16.10
2018-04-10T18:11:17.130Z,16.10
2018-04-10T18:13:47.277Z,16.10
2018-04-10T18:16:18.121Z,16.00
2018-04-10T18:18:48.460Z,16.00
2018-04-10T18:21:18.690Z,15.90
2018-04-10T18:23:49.799Z,15.90
2018-04-10T18:26:21.502Z,15.90
2018-04-10T18:28:51.688Z,15.90
2018-04-10T18:31:21.717Z,15.90
2018-04-10T18:33:52.567Z,16.00
2018-04-10T18:36:23.364Z,15.90
2018-04-10T18:38:54.446Z,15.80
2018-04-10T18:41:24.458Z,15.80
2018-04-10T18:43:55.258Z,15.70
2018-04-10T18:46:26.581Z,15.60
2018-04-10T18:48:56.729Z,15.60
2018-04-10T18:51:27.576Z,15.60
2018-04-10T18:53:57.624Z,15.50
2018-04-10T18:56:27.642Z,15.50
2018-04-10T18:58:58.360Z,15.40
2018-04-10T19:01:29.424Z,15.60
2018-04-10T19:04:00.327Z,15.60
2018-04-10T19:06:31.671Z,15.70
2018-04-10T19:09:02.770Z,15.60
2018-04-10T19:11:33.002Z,15.60
2018-04-10T19:14:02.957Z,15.50
2018-04-10T19:16:33.073Z,15.50
2018-04-10T19:19:03.026Z,15.50
2018-04-10T19:21:33.049Z,15.60
2018-04-10T19:24:03.988Z,15.60
2018-04-10T19:26:35.045Z,15.50
2018-04-10T19:29:05.115Z,15.50
2018-04-10T19:31:35.133Z,15.50
2018-04-10T19:34:05.933Z,15.40
2018-04-10T19:36:36.750Z,15.50
2018-04-10T19:39:06.758Z,15.40
2018-04-10T19:41:36.848Z,15.50
2018-04-10T19:44:08.630Z,15.30
2018-04-10T19:46:38.686Z,15.30
2018-04-10T19:49:10.273Z,15.20
2018-04-10T19:51:41.299Z,15.20
2018-04-10T19:54:11.529Z,15.10
2018-04-10T19:56:42.916Z,15.20
2018-04-10T19:59:13.760Z,15.20
2018-04-10T20:01:44.565Z,15.30
2018-04-10T20:04:15.563Z,15.10
2018-04-10T20:06:45.645Z,15.10
2018-04-10T20:09:17.570Z,15.10
2018-04-10T20:11:47.762Z,15.10
2018-04-10T20:14:18.597Z,15.00
2018-04-10T20:16:48.597Z,15.00
2018-04-10T20:19:18.692Z,15.00
2018-04-10T20:21:48.727Z,14.60
2018-04-10T20:24:18.966Z,14.10
2018-04-10T20:26:49.245Z,14.30
2018-04-10T20:29:20.098Z,14.40
2018-04-10T20:31:50.832Z,14.40
2018-04-10T20:34:21.734Z,14.60
2018-04-10T20:36:51.849Z,14.60
2018-04-10T20:39:22.681Z,14.60
2018-04-10T20:41:53.523Z,14.40
2018-04-10T20:44:24.325Z,14.30
2018-04-10T20:46:55.397Z,14.50
2018-04-10T20:49:25.598Z,14.40
2018-04-10T20:51:55.648Z,14.40
2018-04-10T20:54:26.475Z,14.20
2018-04-10T20:56:57.245Z,14.40
2018-04-10T20:59:27.369Z,14.30
2018-04-10T21:01:58.210Z,14.40
2018-04-10T21:04:28.285Z,14.40
2018-04-10T21:06:59.249Z,13.90
2018-04-10T21:09:31.154Z,13.90
2018-04-10T21:12:02.022Z,13.60
2018-04-10T21:14:32.923Z,13.70
2018-04-10T21:17:02.919Z,13.70
2018-04-10T21:19:33.865Z,13.50
2018-04-10T21:22:04.047Z,13.50
2018-04-10T21:24:34.889Z,13.60
2018-04-10T21:27:05.006Z,13.60
2018-04-10T21:29:35.125Z,13.40
2018-04-10T21:32:06.015Z,13.00
2018-04-10T21:34:36.977Z,12.90
2018-04-10T21:37:07.841Z,12.60
2018-04-10T21:39:38.924Z,12.60
2018-04-10T21:42:08.964Z,12.60
2018-04-10T21:44:39.809Z,12.60
2018-04-10T21:47:10.646Z,12.40
2018-04-10T21:49:41.491Z,12.50
2018-04-10T21:52:11.569Z,12.50
2018-04-10T21:54:42.529Z,12.20
2018-04-10T21:57:12.649Z,12.20
2018-04-10T21:59:42.810Z,12.10
2018-04-10T22:02:12.935Z,12.00
2018-04-10T22:04:43.011Z,12.00
2018-04-10T22:07:13.089Z,12.00
2018-04-10T22:09:44.081Z,11.80
2018-04-10T22:12:14.967Z,11.50
2018-04-10T22:14:45.040Z,11.50
2018-04-10T22:17:15.833Z,12.00
2018-04-10T22:19:45.972Z,12.00
2018-04-10T22:22:16.773Z,11.50
2018-04-10T22:24:47.285Z,11.60
2018-04-10T22:27:17.378Z,11.70
2018-04-10T22:29:47.442Z,11.70
2018-04-10T22:32:18.412Z,11.50
2018-04-10T22:34:48.452Z,11.50
2018-04-10T22:37:18.489Z,11.30
2018-04-10T22:39:49.465Z,11.20
2018-04-10T22:42:20.411Z,11.20
2018-04-10T22:44:51.417Z,11.50
2018-04-10T22:47:22.404Z,11.60
2018-04-10T22:49:52.569Z,11.60
2018-04-10T22:52:23.580Z,11.40
2018-04-10T22:54:53.761Z,11.40
2018-04-10T22:57:23.854Z,11.50
2018-04-10T22:59:54.717Z,11.50
2018-04-10T23:02:25.569Z,11.60
2018-04-10T23:04:55.703Z,11.60
2018-04-10T23:07:26.498Z,11.20
2018-04-10T23:09:56.629Z,11.20
2018-04-10T23:12:27.545Z,11.00
2018-04-10T23:14:57.637Z,11.00
2018-04-10T23:17:28.433Z,11.30
2018-04-10T23:19:59.322Z,11.40
2018-04-10T23:22:29.525Z,11.40
2018-04-10T23:24:59.681Z,11.20
2018-04-10T23:27:29.890Z,11.00
2018-04-10T23:30:00.685Z,10.70
2018-04-10T23:32:31.671Z,10.60
2018-04-10T23:35:01.779Z,10.60
2018-04-10T23:37:32.730Z,10.50
2018-04-10T23:40:02.818Z,10.40
2018-04-10T23:42:32.973Z,10.50
2018-04-10T23:45:03.142Z,10.60
2018-04-10T23:47:34.016Z,10.20
2018-04-10T23:50:04.856Z,10.30
2018-04-10T23:52:35.935Z,10.30
2018-04-10T23:55:05.968Z,10.30
2018-04-10T23:57:36.030Z,10.20
